sensor_id;sensor_type;location;lat;lon;timestamp;pressure;altitude;pressure_sealevel;temperature;humidity
56042;BME280;48756;41.374;2.066;2023-03-03T00:01:29;101142.47;;;8.39;45.57
56042;BME280;48756;41.374;2.066;2023-03-03T00:03:57;101145.09;;;8.41;45.20
56042;BME280;48756;41.374;2.066;2023-03-03T00:06:26;101150.28;;;8.45;45.81
56042;BME280;48756;41.374;2.066;2023-03-03T00:08:51;101145.91;;;8.37;45.39
56042;BME280;48756;41.374;2.066;2023-03-03T00:11:17;101143.22;;;8.30;46.45
56042;BME280;48756;41.374;2.066;2023-03-03T00:13:49;101148.38;;;8.20;46.89
56042;BME280;48756;41.374;2.066;2023-03-03T00:16:27;101145.06;;;8.38;46.01
56042;BME280;48756;41.374;2.066;2023-03-03T00:18:54;101127.72;;;8.37;46.07
56042;BME280;48756;41.374;2.066;2023-03-03T00:21:26;101132.81;;;8.21;46.56
56042;BME280;48756;41.374;2.066;2023-03-03T00:23:54;101128.53;;;8.31;46.81
56042;BME280;48756;41.374;2.066;2023-03-03T00:26:30;101134.56;;;8.25;47.07
56042;BME280;48756;41.374;2.066;2023-03-03T00:28:58;101127.44;;;7.97;47.75
56042;BME280;48756;41.374;2.066;2023-03-03T00:31:32;101124.88;;;8.02;47.00
56042;BME280;48756;41.374;2.066;2023-03-03T00:36:45;101130.94;;;8.01;47.20
56042;BME280;48756;41.374;2.066;2023-03-03T00:41:56;101122.28;;;8.00;47.17
56042;BME280;48756;41.374;2.066;2023-03-03T00:44:33;101125.50;;;7.70;47.30
56042;BME280;48756;41.374;2.066;2023-03-03T00:52:26;101123.13;;;7.97;47.05
56042;BME280;48756;41.374;2.066;2023-03-03T00:54:53;101135.91;;;7.75;47.71
56042;BME280;48756;41.374;2.066;2023-03-03T00:57:18;101140.91;;;7.52;47.87
56042;BME280;48756;41.374;2.066;2023-03-03T00:59:44;101133.19;;;7.59;47.92
56042;BME280;48756;41.374;2.066;2023-03-03T01:02:09;101128.84;;;7.58;48.27
56042;BME280;48756;41.374;2.066;2023-03-03T01:04:35;101137.31;;;7.41;48.35
56042;BME280;48756;41.374;2.066;2023-03-03T01:07:00;101132.94;;;7.36;48.39
56042;BME280;48756;41.374;2.066;2023-03-03T01:09:26;101135.53;;;7.33;48.83
56042;BME280;48756;41.374;2.066;2023-03-03T01:11:52;101121.06;;;7.57;47.86
56042;BME280;48756;41.374;2.066;2023-03-03T01:14:17;101138.13;;;7.35;48.28
56042;BME280;48756;41.374;2.066;2023-03-03T01:16:43;101116.69;;;7.53;47.80
56042;BME280;48756;41.374;2.066;2023-03-03T01:19:09;101122.50;;;7.27;47.85
56042;BME280;48756;41.374;2.066;2023-03-03T01:21:34;101118.34;;;7.46;47.75
56042;BME280;48756;41.374;2.066;2023-03-03T01:23:59;101112.19;;;7.35;47.70
56042;BME280;48756;41.374;2.066;2023-03-03T01:26:25;101122.66;;;7.46;48.12
56042;BME280;48756;41.374;2.066;2023-03-03T01:28:50;101112.91;;;7.22;48.51
56042;BME280;48756;41.374;2.066;2023-03-03T01:31:16;101111.88;;;7.03;48.80
56042;BME280;48756;41.374;2.066;2023-03-03T01:33:41;101112.00;;;7.17;49.06
56042;BME280;48756;41.374;2.066;2023-03-03T01:36:07;101106.63;;;7.00;49.97
56042;BME280;48756;41.374;2.066;2023-03-03T01:38:37;101105.22;;;7.28;49.00
56042;BME280;48756;41.374;2.066;2023-03-03T01:41:03;101099.94;;;7.20;49.13
56042;BME280;48756;41.374;2.066;2023-03-03T01:43:30;101095.50;;;7.07;49.45
56042;BME280;48756;41.374;2.066;2023-03-03T01:48:33;101097.72;;;6.75;50.54
56042;BME280;48756;41.374;2.066;2023-03-03T01:51:26;101102.81;;;6.66;50.08
56042;BME280;48756;41.374;2.066;2023-03-03T01:53:55;101103.78;;;6.75;51.25
56042;BME280;48756;41.374;2.066;2023-03-03T01:56:22;101102.69;;;6.57;51.39
56042;BME280;48756;41.374;2.066;2023-03-03T01:58:55;101107.81;;;6.55;50.93
56042;BME280;48756;41.374;2.066;2023-03-03T02:01:25;101107.94;;;6.61;51.40
56042;BME280;48756;41.374;2.066;2023-03-03T02:03:51;101113.41;;;6.87;50.37
56042;BME280;48756;41.374;2.066;2023-03-03T02:06:19;101099.72;;;7.00;49.50
56042;BME280;48756;41.374;2.066;2023-03-03T02:08:58;101091.75;;;6.79;49.38
56042;BME280;48756;41.374;2.066;2023-03-03T02:11:24;101097.91;;;6.90;49.36
56042;BME280;48756;41.374;2.066;2023-03-03T02:13:51;101098.63;;;6.79;49.96
56042;BME280;48756;41.374;2.066;2023-03-03T02:16:16;101096.13;;;6.86;48.77
56042;BME280;48756;41.374;2.066;2023-03-03T02:18:42;101088.56;;;7.04;48.73
56042;BME280;48756;41.374;2.066;2023-03-03T02:21:14;101088.44;;;6.94;48.69
56042;BME280;48756;41.374;2.066;2023-03-03T02:23:56;101085.78;;;6.88;48.49
56042;BME280;48756;41.374;2.066;2023-03-03T02:26:29;101080.50;;;6.79;48.85
56042;BME280;48756;41.374;2.066;2023-03-03T02:28:55;101085.00;;;6.95;49.59
56042;BME280;48756;41.374;2.066;2023-03-03T02:31:24;101086.00;;;7.04;49.24
56042;BME280;48756;41.374;2.066;2023-03-03T02:33:51;101080.59;;;6.85;49.37
56042;BME280;48756;41.374;2.066;2023-03-03T02:36:20;101084.16;;;6.96;48.55
56042;BME280;48756;41.374;2.066;2023-03-03T02:38:50;101078.94;;;6.93;49.13
56042;BME280;48756;41.374;2.066;2023-03-03T02:46:13;101084.94;;;6.89;49.59
56042;BME280;48756;41.374;2.066;2023-03-03T02:48:41;101080.69;;;6.95;49.17
56042;BME280;48756;41.374;2.066;2023-03-03T02:51:06;101078.94;;;6.93;49.51
56042;BME280;48756;41.374;2.066;2023-03-03T02:53:32;101074.53;;;6.83;49.29
56042;BME280;48756;41.374;2.066;2023-03-03T02:55:57;101066.91;;;6.98;48.90
56042;BME280;48756;41.374;2.066;2023-03-03T02:58:23;101073.72;;;6.88;49.34
56042;BME280;48756;41.374;2.066;2023-03-03T03:00:57;101065.94;;;6.87;49.22
56042;BME280;48756;41.374;2.066;2023-03-03T03:03:23;101063.31;;;6.85;49.99
56042;BME280;48756;41.374;2.066;2023-03-03T03:05:48;101064.94;;;6.79;50.11
56042;BME280;48756;41.374;2.066;2023-03-03T03:08:14;101064.28;;;6.95;49.78
56042;BME280;48756;41.374;2.066;2023-03-03T03:10:39;101066.75;;;6.84;50.31
56042;BME280;48756;41.374;2.066;2023-03-03T03:13:05;101063.91;;;6.61;50.24
56042;BME280;48756;41.374;2.066;2023-03-03T03:15:30;101066.72;;;6.81;50.44
56042;BME280;48756;41.374;2.066;2023-03-03T03:17:56;101065.69;;;6.67;50.65
56042;BME280;48756;41.374;2.066;2023-03-03T03:20:21;101068.38;;;6.74;50.72
56042;BME280;48756;41.374;2.066;2023-03-03T03:22:47;101070.84;;;6.65;50.85
56042;BME280;48756;41.374;2.066;2023-03-03T03:25:12;101071.91;;;6.81;51.25
56042;BME280;48756;41.374;2.066;2023-03-03T03:27:41;101073.66;;;6.84;50.82
56042;BME280;48756;41.374;2.066;2023-03-03T03:30:07;101071.75;;;6.69;50.74
56042;BME280;48756;41.374;2.066;2023-03-03T03:32:32;101076.91;;;6.66;51.40
56042;BME280;48756;41.374;2.066;2023-03-03T03:34:58;101075.44;;;6.88;51.20
56042;BME280;48756;41.374;2.066;2023-03-03T03:37:23;101073.38;;;6.58;51.69
56042;BME280;48756;41.374;2.066;2023-03-03T03:39:49;101079.16;;;6.38;52.33
56042;BME280;48756;41.374;2.066;2023-03-03T03:42:14;101075.88;;;6.55;52.33
56042;BME280;48756;41.374;2.066;2023-03-03T03:44:40;101076.72;;;6.51;51.88
56042;BME280;48756;41.374;2.066;2023-03-03T03:47:05;101071.13;;;6.19;52.63
56042;BME280;48756;41.374;2.066;2023-03-03T03:49:31;101075.69;;;6.38;53.52
56042;BME280;48756;41.374;2.066;2023-03-03T03:51:56;101067.19;;;6.50;52.40
56042;BME280;48756;41.374;2.066;2023-03-03T03:54:22;101067.91;;;6.35;52.62
56042;BME280;48756;41.374;2.066;2023-03-03T03:56:47;101060.06;;;6.32;52.69
56042;BME280;48756;41.374;2.066;2023-03-03T03:59:13;101052.88;;;6.09;54.08
56042;BME280;48756;41.374;2.066;2023-03-03T04:01:38;101053.06;;;6.23;53.42
56042;BME280;48756;41.374;2.066;2023-03-03T04:04:04;101049.88;;;6.44;52.59
56042;BME280;48756;41.374;2.066;2023-03-03T04:06:32;101046.16;;;6.24;53.19
56042;BME280;48756;41.374;2.066;2023-03-03T04:08:58;101050.50;;;6.26;53.02
56042;BME280;48756;41.374;2.066;2023-03-03T04:11:23;101045.25;;;6.19;53.26
56042;BME280;48756;41.374;2.066;2023-03-03T04:13:49;101047.94;;;6.28;53.48
56042;BME280;48756;41.374;2.066;2023-03-03T04:16:14;101047.84;;;6.20;53.32
56042;BME280;48756;41.374;2.066;2023-03-03T04:18:41;101048.56;;;6.10;53.92
56042;BME280;48756;41.374;2.066;2023-03-03T04:21:09;101044.84;;;5.90;54.40
56042;BME280;48756;41.374;2.066;2023-03-03T04:23:35;101047.88;;;5.66;55.35
56042;BME280;48756;41.374;2.066;2023-03-03T04:26:00;101046.41;;;5.81;54.99
56042;BME280;48756;41.374;2.066;2023-03-03T04:28:29;101049.69;;;5.70;55.25
56042;BME280;48756;41.374;2.066;2023-03-03T04:30:54;101043.84;;;5.83;55.04
56042;BME280;48756;41.374;2.066;2023-03-03T04:33:20;101043.66;;;5.71;55.29
56042;BME280;48756;41.374;2.066;2023-03-03T04:35:45;101045.50;;;5.78;55.99
56042;BME280;48756;41.374;2.066;2023-03-03T04:38:11;101047.31;;;5.85;54.36
56042;BME280;48756;41.374;2.066;2023-03-03T04:40:39;101045.59;;;5.85;55.77
56042;BME280;48756;41.374;2.066;2023-03-03T04:43:06;101042.97;;;5.84;55.49
56042;BME280;48756;41.374;2.066;2023-03-03T04:45:31;101044.13;;;6.01;54.89
56042;BME280;48756;41.374;2.066;2023-03-03T04:47:56;101044.03;;;5.92;55.42
56042;BME280;48756;41.374;2.066;2023-03-03T04:50:22;101053.25;;;6.37;54.69
56042;BME280;48756;41.374;2.066;2023-03-03T04:52:48;101044.03;;;5.94;55.63
56042;BME280;48756;41.374;2.066;2023-03-03T04:55:13;101042.41;;;6.02;55.71
56042;BME280;48756;41.374;2.066;2023-03-03T04:57:41;101046.97;;;6.20;55.40
56042;BME280;48756;41.374;2.066;2023-03-03T05:00:08;101045.38;;;6.29;54.27
56042;BME280;48756;41.374;2.066;2023-03-03T05:02:33;101045.47;;;6.34;54.95
56042;BME280;48756;41.374;2.066;2023-03-03T05:04:59;101057.44;;;6.29;54.44
56042;BME280;48756;41.374;2.066;2023-03-03T05:07:24;101056.53;;;6.25;54.39
56042;BME280;48756;41.374;2.066;2023-03-03T05:09:52;101048.38;;;5.96;55.47
56042;BME280;48756;41.374;2.066;2023-03-03T05:12:18;101049.19;;;5.91;55.42
56042;BME280;48756;41.374;2.066;2023-03-03T05:14:47;101049.00;;;5.83;56.16
56042;BME280;48756;41.374;2.066;2023-03-03T05:17:12;101051.75;;;5.91;56.13
56042;BME280;48756;41.374;2.066;2023-03-03T05:19:38;101053.75;;;5.56;56.49
56042;BME280;48756;41.374;2.066;2023-03-03T05:22:04;101055.44;;;5.53;57.81
56042;BME280;48756;41.374;2.066;2023-03-03T05:24:29;101048.53;;;5.52;56.52
56042;BME280;48756;41.374;2.066;2023-03-03T05:26:58;101056.47;;;5.63;57.35
56042;BME280;48756;41.374;2.066;2023-03-03T05:29:23;101060.91;;;5.72;57.54
56042;BME280;48756;41.374;2.066;2023-03-03T05:31:49;101065.31;;;5.79;56.78
56042;BME280;48756;41.374;2.066;2023-03-03T05:34:14;101062.34;;;6.09;55.53
56042;BME280;48756;41.374;2.066;2023-03-03T05:36:40;101071.00;;;5.57;56.67
56042;BME280;48756;41.374;2.066;2023-03-03T05:39:08;101072.75;;;5.59;57.82
56042;BME280;48756;41.374;2.066;2023-03-03T05:41:34;101068.72;;;5.75;56.07
56042;BME280;48756;41.374;2.066;2023-03-03T05:44:01;101073.50;;;6.05;56.90
56042;BME280;48756;41.374;2.066;2023-03-03T05:46:30;101076.84;;;5.96;56.03
56042;BME280;48756;41.374;2.066;2023-03-03T05:48:55;101081.78;;;5.84;56.88
56042;BME280;48756;41.374;2.066;2023-03-03T05:51:21;101080.38;;;6.03;56.92
56042;BME280;48756;41.374;2.066;2023-03-03T05:53:46;101077.63;;;5.91;56.94
56042;BME280;48756;41.374;2.066;2023-03-03T05:56:11;101074.94;;;5.88;57.60
56042;BME280;48756;41.374;2.066;2023-03-03T05:58:37;101082.78;;;5.91;57.42
56042;BME280;48756;41.374;2.066;2023-03-03T06:01:03;101087.97;;;5.91;57.41
56042;BME280;48756;41.374;2.066;2023-03-03T06:03:28;101089.03;;;6.06;56.54
56042;BME280;48756;41.374;2.066;2023-03-03T06:05:54;101090.38;;;5.83;57.33
56042;BME280;48756;41.374;2.066;2023-03-03T06:08:19;101092.31;;;5.93;56.76
56042;BME280;48756;41.374;2.066;2023-03-03T06:10:45;101101.19;;;5.58;57.93
56042;BME280;48756;41.374;2.066;2023-03-03T06:13:10;101095.44;;;5.74;57.90
56042;BME280;48756;41.374;2.066;2023-03-03T06:15:36;101104.69;;;5.61;57.99
56042;BME280;48756;41.374;2.066;2023-03-03T06:18:02;101095.13;;;5.57;56.64
56042;BME280;48756;41.374;2.066;2023-03-03T06:20:27;101102.47;;;5.33;57.56
56042;BME280;48756;41.374;2.066;2023-03-03T06:22:53;101100.63;;;4.80;59.10
56042;BME280;48756;41.374;2.066;2023-03-03T06:25:19;101104.91;;;4.78;59.33
56042;BME280;48756;41.374;2.066;2023-03-03T06:27:44;101106.81;;;4.88;59.35
56042;BME280;48756;41.374;2.066;2023-03-03T06:30:10;101099.78;;;4.81;59.54
56042;BME280;48756;41.374;2.066;2023-03-03T06:32:37;101103.44;;;4.92;59.51
56042;BME280;48756;41.374;2.066;2023-03-03T06:35:03;101101.31;;;5.17;59.05
56042;BME280;48756;41.374;2.066;2023-03-03T06:37:29;101103.78;;;5.09;58.72
56042;BME280;48756;41.374;2.066;2023-03-03T06:39:54;101106.50;;;5.17;59.19
56042;BME280;48756;41.374;2.066;2023-03-03T06:42:20;101108.22;;;5.18;57.97
56042;BME280;48756;41.374;2.066;2023-03-03T06:44:46;101115.06;;;5.14;58.90
56042;BME280;48756;41.374;2.066;2023-03-03T06:47:11;101115.69;;;5.01;59.15
56042;BME280;48756;41.374;2.066;2023-03-03T06:49:37;101115.78;;;5.07;59.15
56042;BME280;48756;41.374;2.066;2023-03-03T06:52:11;101117.56;;;5.10;59.63
56042;BME280;48756;41.374;2.066;2023-03-03T06:54:37;101125.69;;;5.31;59.68
56042;BME280;48756;41.374;2.066;2023-03-03T06:57:16;101124.78;;;5.28;58.77
56042;BME280;48756;41.374;2.066;2023-03-03T06:59:46;101124.78;;;5.28;59.39
56042;BME280;48756;41.374;2.066;2023-03-03T07:02:15;101126.19;;;5.59;58.49
56042;BME280;48756;41.374;2.066;2023-03-03T07:04:41;101130.47;;;5.58;58.81
56042;BME280;48756;41.374;2.066;2023-03-03T07:09:38;101120.38;;;5.70;58.44
56042;BME280;48756;41.374;2.066;2023-03-03T07:12:10;101128.00;;;5.64;58.77
56042;BME280;48756;41.374;2.066;2023-03-03T07:14:45;101126.44;;;5.74;57.62
56042;BME280;48756;41.374;2.066;2023-03-03T07:17:16;101129.66;;;5.61;59.41
56042;BME280;48756;41.374;2.066;2023-03-03T07:19:42;101137.63;;;5.71;58.14
56042;BME280;48756;41.374;2.066;2023-03-03T07:22:15;101146.75;;;5.51;58.52
56042;BME280;48756;41.374;2.066;2023-03-03T07:24:43;101146.22;;;5.70;57.33
56042;BME280;48756;41.374;2.066;2023-03-03T07:27:12;101148.53;;;5.55;58.54
56042;BME280;48756;41.374;2.066;2023-03-03T07:29:38;101151.06;;;5.52;59.29
56042;BME280;48756;41.374;2.066;2023-03-03T07:34:51;101144.00;;;5.90;57.38
56042;BME280;48756;41.374;2.066;2023-03-03T07:37:36;101144.19;;;6.02;56.90
56042;BME280;48756;41.374;2.066;2023-03-03T07:42:45;101159.72;;;6.04;57.39
56042;BME280;48756;41.374;2.066;2023-03-03T07:45:31;101150.41;;;6.13;57.11
56042;BME280;48756;41.374;2.066;2023-03-03T07:50:40;101149.22;;;6.52;56.47
56042;BME280;48756;41.374;2.066;2023-03-03T07:53:14;101148.41;;;6.56;56.19
56042;BME280;48756;41.374;2.066;2023-03-03T07:55:46;101158.19;;;6.79;55.54
56042;BME280;48756;41.374;2.066;2023-03-03T08:03:43;101172.53;;;7.20;53.98
56042;BME280;48756;41.374;2.066;2023-03-03T08:14:45;101179.00;;;7.62;53.18
56042;BME280;48756;41.374;2.066;2023-03-03T08:17:19;101176.41;;;7.60;53.11
56042;BME280;48756;41.374;2.066;2023-03-03T08:19:46;101180.03;;;7.76;52.62
56042;BME280;48756;41.374;2.066;2023-03-03T08:22:15;101185.75;;;7.46;53.59
56042;BME280;48756;41.374;2.066;2023-03-03T08:24:42;101183.44;;;7.72;52.66
56042;BME280;48756;41.374;2.066;2023-03-03T08:27:07;101174.94;;;7.88;52.69
56042;BME280;48756;41.374;2.066;2023-03-03T08:29:33;101180.66;;;7.51;54.16
56042;BME280;48756;41.374;2.066;2023-03-03T08:31:59;101184.19;;;7.60;53.34
56042;BME280;48756;41.374;2.066;2023-03-03T08:34:27;101185.97;;;7.66;53.51
56042;BME280;48756;41.374;2.066;2023-03-03T08:36:52;101191.06;;;7.55;53.44
56042;BME280;48756;41.374;2.066;2023-03-03T08:39:18;101185.88;;;7.55;53.10
56042;BME280;48756;41.374;2.066;2023-03-03T08:41:44;101199.63;;;7.48;53.00
56042;BME280;48756;41.374;2.066;2023-03-03T08:44:10;101188.56;;;7.66;53.30
56042;BME280;48756;41.374;2.066;2023-03-03T08:46:36;101183.56;;;7.86;52.83
56042;BME280;48756;41.374;2.066;2023-03-03T08:49:02;101183.66;;;7.95;52.27
56042;BME280;48756;41.374;2.066;2023-03-03T08:51:27;101180.38;;;8.16;51.90
56042;BME280;48756;41.374;2.066;2023-03-03T08:53:53;101178.63;;;8.15;51.86
56042;BME280;48756;41.374;2.066;2023-03-03T08:56:22;101176.97;;;8.27;51.79
56042;BME280;48756;41.374;2.066;2023-03-03T08:58:47;101177.69;;;8.10;51.97
56042;BME280;48756;41.374;2.066;2023-03-03T09:01:14;101178.78;;;8.36;51.04
56042;BME280;48756;41.374;2.066;2023-03-03T09:03:41;101192.75;;;8.52;50.54
56042;BME280;48756;41.374;2.066;2023-03-03T09:06:07;101188.50;;;8.62;50.46
56042;BME280;48756;41.374;2.066;2023-03-03T09:08:33;101186.78;;;8.64;50.01
56042;BME280;48756;41.374;2.066;2023-03-03T09:10:58;101196.25;;;8.58;51.25
56042;BME280;48756;41.374;2.066;2023-03-03T09:13:24;101185.16;;;8.90;50.53
56042;BME280;48756;41.374;2.066;2023-03-03T09:15:50;101191.16;;;8.81;50.63
56042;BME280;48756;41.374;2.066;2023-03-03T09:18:18;101191.25;;;9.00;49.80
56042;BME280;48756;41.374;2.066;2023-03-03T09:20:49;101185.34;;;9.34;48.83
56042;BME280;48756;41.374;2.066;2023-03-03T09:23:28;101186.22;;;9.50;49.31
56042;BME280;48756;41.374;2.066;2023-03-03T09:25:56;101183.66;;;9.53;49.34
56042;BME280;48756;41.374;2.066;2023-03-03T09:28:30;101190.63;;;9.81;48.31
56042;BME280;48756;41.374;2.066;2023-03-03T09:31:00;101186.25;;;9.56;48.32
56042;BME280;48756;41.374;2.066;2023-03-03T09:33:41;101184.56;;;9.98;47.94
56042;BME280;48756;41.374;2.066;2023-03-03T09:36:28;101179.38;;;10.21;47.57
56042;BME280;48756;41.374;2.066;2023-03-03T09:38:55;101187.16;;;9.87;48.02
56042;BME280;48756;41.374;2.066;2023-03-03T09:44:29;101184.53;;;10.40;47.01
56042;BME280;48756;41.374;2.066;2023-03-03T09:49:51;101175.84;;;10.58;46.89
56042;BME280;48756;41.374;2.066;2023-03-03T09:52:32;101181.06;;;10.49;46.83
56042;BME280;48756;41.374;2.066;2023-03-03T10:08:57;101164.09;;;11.57;44.31
56042;BME280;48756;41.374;2.066;2023-03-03T10:11:49;101165.19;;;11.19;44.27
56042;BME280;48756;41.374;2.066;2023-03-03T10:17:38;101163.03;;;11.87;43.73
56042;BME280;48756;41.374;2.066;2023-03-03T10:30:47;101169.53;;;12.40;42.87
56042;BME280;48756;41.374;2.066;2023-03-03T10:33:27;101172.38;;;12.14;42.20
56042;BME280;48756;41.374;2.066;2023-03-03T10:36:28;101169.44;;;12.50;41.86
56042;BME280;48756;41.374;2.066;2023-03-03T10:58:45;101157.94;;;13.34;35.90
56042;BME280;48756;41.374;2.066;2023-03-03T11:01:43;101145.63;;;13.42;36.67
56042;BME280;48756;41.374;2.066;2023-03-03T11:06:57;101147.28;;;13.48;36.98
56042;BME280;48756;41.374;2.066;2023-03-03T11:09:38;101147.19;;;14.09;36.05
56042;BME280;48756;41.374;2.066;2023-03-03T11:12:19;101143.97;;;13.92;36.64
56042;BME280;48756;41.374;2.066;2023-03-03T11:17:57;101141.88;;;14.13;35.31
56042;BME280;48756;41.374;2.066;2023-03-03T11:20:41;101135.81;;;14.10;34.39
56042;BME280;48756;41.374;2.066;2023-03-03T11:29:15;101140.84;;;14.69;32.72
56042;BME280;48756;41.374;2.066;2023-03-03T11:36:54;101141.13;;;14.98;32.51
56042;BME280;48756;41.374;2.066;2023-03-03T11:39:24;101133.19;;;15.79;32.23
56042;BME280;48756;41.374;2.066;2023-03-03T11:44:38;101134.41;;;14.85;33.95
56042;BME280;48756;41.374;2.066;2023-03-03T11:47:17;101139.22;;;14.63;33.87
56042;BME280;48756;41.374;2.066;2023-03-03T11:50:07;101127.25;;;15.32;33.31
56042;BME280;48756;41.374;2.066;2023-03-03T11:52:50;101122.66;;;15.43;33.00
56042;BME280;48756;41.374;2.066;2023-03-03T11:55:37;101119.06;;;15.84;32.35
56042;BME280;48756;41.374;2.066;2023-03-03T12:00:44;101123.22;;;15.19;32.93
56042;BME280;48756;41.374;2.066;2023-03-03T12:03:39;101117.03;;;15.57;33.46
56042;BME280;48756;41.374;2.066;2023-03-03T12:22:24;101105.44;;;16.35;34.58
56042;BME280;48756;41.374;2.066;2023-03-03T12:25:18;101089.72;;;15.67;36.36
56042;BME280;48756;41.374;2.066;2023-03-03T12:36:28;101112.09;;;16.16;36.76
56042;BME280;48756;41.374;2.066;2023-03-03T12:44:06;101108.22;;;15.63;38.20
56042;BME280;48756;41.374;2.066;2023-03-03T12:46:55;101096.63;;;16.04;37.70
56042;BME280;48756;41.374;2.066;2023-03-03T12:49:40;101098.66;;;15.94;37.74
56042;BME280;48756;41.374;2.066;2023-03-03T12:52:25;101097.44;;;16.06;37.91
56042;BME280;48756;41.374;2.066;2023-03-03T12:55:13;101095.28;;;15.52;38.59
56042;BME280;48756;41.374;2.066;2023-03-03T12:58:24;101091.88;;;15.48;39.07
56042;BME280;48756;41.374;2.066;2023-03-03T13:03:52;101087.75;;;15.75;39.22
56042;BME280;48756;41.374;2.066;2023-03-03T13:06:31;101089.22;;;15.50;38.24
56042;BME280;48756;41.374;2.066;2023-03-03T13:09:17;101084.81;;;15.13;39.48
56042;BME280;48756;41.374;2.066;2023-03-03T13:12:07;101080.13;;;15.27;39.74
56042;BME280;48756;41.374;2.066;2023-03-03T13:14:45;101082.66;;;15.30;38.98
56042;BME280;48756;41.374;2.066;2023-03-03T13:19:59;101077.28;;;15.35;39.38
56042;BME280;48756;41.374;2.066;2023-03-03T13:22:45;101080.69;;;15.40;40.06
56042;BME280;48756;41.374;2.066;2023-03-03T13:25:52;101084.03;;;15.47;40.22
56042;BME280;48756;41.374;2.066;2023-03-03T13:28:30;101081.94;;;15.63;39.95
56042;BME280;48756;41.374;2.066;2023-03-03T13:31:21;101068.19;;;15.50;39.66
56042;BME280;48756;41.374;2.066;2023-03-03T13:33:54;101076.44;;;15.72;40.85
56042;BME280;48756;41.374;2.066;2023-03-03T13:36:27;101082.81;;;15.24;40.55
56042;BME280;48756;41.374;2.066;2023-03-03T13:39:00;101081.59;;;15.00;41.52
56042;BME280;48756;41.374;2.066;2023-03-03T13:41:48;101078.09;;;15.40;40.60
56042;BME280;48756;41.374;2.066;2023-03-03T13:44:24;101073.16;;;15.98;39.70
56042;BME280;48756;41.374;2.066;2023-03-03T13:52:23;101067.78;;;15.68;40.86
56042;BME280;48756;41.374;2.066;2023-03-03T14:05:54;101054.38;;;15.43;41.93
56042;BME280;48756;41.374;2.066;2023-03-03T14:08:44;101060.88;;;15.98;41.12
56042;BME280;48756;41.374;2.066;2023-03-03T14:11:24;101050.06;;;15.41;42.80
56042;BME280;48756;41.374;2.066;2023-03-03T14:16:56;101051.91;;;14.98;43.61
56042;BME280;48756;41.374;2.066;2023-03-03T14:25:05;101050.00;;;15.05;43.60
56042;BME280;48756;41.374;2.066;2023-03-03T14:27:38;101051.78;;;15.05;44.35
56042;BME280;48756;41.374;2.066;2023-03-03T14:30:26;101046.44;;;15.45;43.77
56042;BME280;48756;41.374;2.066;2023-03-03T14:33:13;101062.06;;;14.75;45.05
56042;BME280;48756;41.374;2.066;2023-03-03T14:35:49;101063.03;;;14.69;45.56
56042;BME280;48756;41.374;2.066;2023-03-03T14:38:17;101056.75;;;15.17;45.72
56042;BME280;48756;41.374;2.066;2023-03-03T14:40:45;101056.22;;;15.01;45.26
56042;BME280;48756;41.374;2.066;2023-03-03T14:43:22;101063.38;;;14.93;44.30
56042;BME280;48756;41.374;2.066;2023-03-03T14:45:48;101051.22;;;15.27;42.95
56042;BME280;48756;41.374;2.066;2023-03-03T14:48:17;101048.91;;;15.51;41.80
56042;BME280;48756;41.374;2.066;2023-03-03T14:50:53;101051.44;;;15.91;41.92
56042;BME280;48756;41.374;2.066;2023-03-03T14:53:34;101055.56;;;14.91;42.68
56042;BME280;48756;41.374;2.066;2023-03-03T14:58:48;101056.97;;;15.06;42.63
56042;BME280;48756;41.374;2.066;2023-03-03T15:01:21;101066.13;;;14.88;43.17
56042;BME280;48756;41.374;2.066;2023-03-03T15:03:56;101061.16;;;14.76;44.21
56042;BME280;48756;41.374;2.066;2023-03-03T15:06:44;101058.94;;;14.56;44.67
56042;BME280;48756;41.374;2.066;2023-03-03T15:09:34;101056.56;;;14.44;45.87
56042;BME280;48756;41.374;2.066;2023-03-03T15:12:22;101057.72;;;14.74;44.64
56042;BME280;48756;41.374;2.066;2023-03-03T15:14:52;101056.25;;;14.99;45.38
56042;BME280;48756;41.374;2.066;2023-03-03T15:22:58;101053.84;;;14.50;45.85
56042;BME280;48756;41.374;2.066;2023-03-03T15:25:38;101045.19;;;14.85;46.44
56042;BME280;48756;41.374;2.066;2023-03-03T15:31:15;101045.16;;;14.47;46.15
56042;BME280;48756;41.374;2.066;2023-03-03T15:33:45;101055.63;;;14.47;46.41
56042;BME280;48756;41.374;2.066;2023-03-03T15:36:35;101048.03;;;14.33;47.26
56042;BME280;48756;41.374;2.066;2023-03-03T15:39:15;101047.31;;;14.68;45.17
56042;BME280;48756;41.374;2.066;2023-03-03T15:41:47;101046.19;;;14.36;46.07
56042;BME280;48756;41.374;2.066;2023-03-03T15:44:33;101047.16;;;14.32;47.40
56042;BME280;48756;41.374;2.066;2023-03-03T15:52:55;101051.31;;;14.43;45.84
56042;BME280;48756;41.374;2.066;2023-03-03T15:55:32;101044.38;;;14.83;46.59
56042;BME280;48756;41.374;2.066;2023-03-03T16:03:32;101051.47;;;14.35;47.81
56042;BME280;48756;41.374;2.066;2023-03-03T16:06:05;101042.53;;;14.87;46.36
56042;BME280;48756;41.374;2.066;2023-03-03T16:30:02;101040.13;;;13.90;46.35
56042;BME280;48756;41.374;2.066;2023-03-03T16:32:43;101040.69;;;14.05;44.21
56042;BME280;48756;41.374;2.066;2023-03-03T16:35:24;101043.75;;;14.29;43.79
56042;BME280;48756;41.374;2.066;2023-03-03T16:45:39;101044.44;;;13.92;41.92
56042;BME280;48756;41.374;2.066;2023-03-03T16:58:41;101057.31;;;14.03;42.30
56042;BME280;48756;41.374;2.066;2023-03-03T17:04:16;101071.91;;;14.18;42.13
56042;BME280;48756;41.374;2.066;2023-03-03T17:06:58;101070.19;;;14.17;42.85
56042;BME280;48756;41.374;2.066;2023-03-03T17:12:22;101081.72;;;14.08;44.21
56042;BME280;48756;41.374;2.066;2023-03-03T17:17:51;101091.09;;;13.70;44.96
56042;BME280;48756;41.374;2.066;2023-03-03T17:26:08;101091.13;;;13.67;46.65
56042;BME280;48756;41.374;2.066;2023-03-03T17:34:23;101107.06;;;13.54;47.49
56042;BME280;48756;41.374;2.066;2023-03-03T17:56:00;101142.47;;;13.19;50.56
56042;BME280;48756;41.374;2.066;2023-03-03T17:58:43;101142.53;;;13.11;50.39